BTY002 EPWA-ESSA
Flight info
| Callsign | BTY002 |
|---|---|
| Flight time | 1h 30m |
| Altitude | 38000 |
| Route | OLILA L621 GRUDA N133 PENOR DCT ARMOD/N0436F370 Z228 NILUG |
| Aircraft | A320/M-SDE3FGHIRWY/LB1 |
Departure
| Time | 2026-05-01 07:39 |
|---|---|
| Airport | Warsaw Chopin Airport (EPWA) |
Arrival
| Time | 2026-05-01 09:09 |
|---|---|
| Airport | Stockholm-Arlanda Airport (ESSA) |
| Time | Latitude | Longitude | Altitude | Speed | Heading |
|---|---|---|---|---|---|
| 2026-05-01 07:23 | 52.16816 | 20.97306 | 339 ft | 0 kts | 78° |
| 2026-05-01 07:32 | 52.16815 | 20.97299 | 339 ft | 3 kts | 78° |
| 2026-05-01 07:32 | 52.16810 | 20.97256 | 337 ft | 4 kts | 78° |
| 2026-05-01 07:33 | 52.16805 | 20.97170 | 335 ft | 4 kts | 107° |
| 2026-05-01 07:33 | 52.16818 | 20.97137 | 335 ft | 2 kts | 150° |
| 2026-05-01 07:33 | 52.16819 | 20.97135 | 334 ft | 0 kts | 152° |
| 2026-05-01 07:35 | 52.16781 | 20.97170 | 336 ft | 15 kts | 151° |
| 2026-05-01 07:35 | 52.16695 | 20.97245 | 336 ft | 13 kts | 153° |
| 2026-05-01 07:36 | 52.16618 | 20.97308 | 336 ft | 12 kts | 153° |
| 2026-05-01 07:36 | 52.16567 | 20.97402 | 336 ft | 12 kts | 117° |
| 2026-05-01 07:36 | 52.16530 | 20.97521 | 336 ft | 12 kts | 116° |
| 2026-05-01 07:36 | 52.16497 | 20.97647 | 336 ft | 12 kts | 114° |
| 2026-05-01 07:37 | 52.16380 | 20.97782 | 337 ft | 12 kts | 205° |
| 2026-05-01 07:37 | 52.16310 | 20.97704 | 334 ft | 12 kts | 245° |
| 2026-05-01 07:37 | 52.16316 | 20.97636 | 335 ft | 0 kts | 287° |
| 2026-05-01 07:38 | 52.16390 | 20.97354 | 334 ft | 66 kts | 294° |
| 2026-05-01 07:38 | 52.17093 | 20.94809 | 577 ft | 156 kts | 295° |
| 2026-05-01 07:39 | 52.17623 | 20.93235 | 1268 ft | 158 kts | 298° |
| 2026-05-01 07:39 | 52.18090 | 20.91615 | 2039 ft | 158 kts | 297° |
| 2026-05-01 07:39 | 52.19929 | 20.89296 | 2781 ft | 194 kts | 336° |
| 2026-05-01 07:40 | 52.21240 | 20.88326 | 3160 ft | 219 kts | 335° |
| 2026-05-01 07:40 | 52.22540 | 20.86792 | 3626 ft | 245 kts | 316° |
| 2026-05-01 07:40 | 52.23741 | 20.84740 | 4404 ft | 253 kts | 315° |
| 2026-05-01 07:40 | 52.24961 | 20.82633 | 5343 ft | 257 kts | 316° |
| 2026-05-01 07:41 | 52.26253 | 20.80596 | 6255 ft | 258 kts | 328° |
| 2026-05-01 07:41 | 52.27893 | 20.79467 | 7137 ft | 256 kts | 351° |
| 2026-05-01 07:41 | 52.31402 | 20.78379 | 8930 ft | 260 kts | 352° |
| 2026-05-01 07:42 | 52.33188 | 20.77832 | 9806 ft | 262 kts | 352° |
| 2026-05-01 07:42 | 52.34996 | 20.77450 | 10633 ft | 262 kts | 2° |
| 2026-05-01 07:42 | 52.36853 | 20.77627 | 11134 ft | 277 kts | 6° |
| 2026-05-01 07:42 | 52.38857 | 20.77879 | 11422 ft | 297 kts | 7° |
| 2026-05-01 07:43 | 52.40950 | 20.78142 | 12064 ft | 304 kts | 6° |
| 2026-05-01 07:43 | 52.43043 | 20.78398 | 12832 ft | 307 kts | 6° |
| 2026-05-01 07:43 | 52.47351 | 20.78599 | 14354 ft | 315 kts | 355° |
| 2026-05-01 07:44 | 52.51405 | 20.75466 | 15644 ft | 340 kts | 324° |
| 2026-05-01 07:44 | 52.54391 | 20.69213 | 16889 ft | 355 kts | 313° |
| 2026-05-01 07:45 | 52.55858 | 20.65903 | 17501 ft | 359 kts | 314° |
| 2026-05-01 07:45 | 52.56838 | 20.63688 | 17926 ft | 361 kts | 314° |
| 2026-05-01 07:45 | 52.58327 | 20.60318 | 18539 ft | 365 kts | 314° |
| 2026-05-01 07:45 | 52.59830 | 20.56920 | 19082 ft | 369 kts | 314° |
| 2026-05-01 07:46 | 52.61843 | 20.52380 | 19800 ft | 372 kts | 314° |
| 2026-05-01 07:46 | 52.62878 | 20.50041 | 20165 ft | 374 kts | 314° |
| 2026-05-01 07:46 | 52.65947 | 20.43084 | 21192 ft | 380 kts | 314° |
| 2026-05-01 07:47 | 52.67503 | 20.39540 | 21709 ft | 382 kts | 314° |
| 2026-05-01 07:47 | 52.69074 | 20.35966 | 22225 ft | 385 kts | 314° |
| 2026-05-01 07:47 | 52.70686 | 20.32418 | 22727 ft | 384 kts | 318° |
| 2026-05-01 07:47 | 52.72448 | 20.29175 | 23217 ft | 385 kts | 320° |
| 2026-05-01 07:48 | 52.76062 | 20.22551 | 24144 ft | 390 kts | 320° |
| 2026-05-01 07:48 | 52.77880 | 20.19194 | 24555 ft | 392 kts | 320° |
| 2026-05-01 07:48 | 52.79704 | 20.15821 | 24954 ft | 395 kts | 320° |
| 2026-05-01 07:49 | 52.81515 | 20.12462 | 25340 ft | 397 kts | 319° |
| 2026-05-01 07:49 | 52.85128 | 20.05429 | 26103 ft | 404 kts | 317° |
| 2026-05-01 07:49 | 52.86922 | 20.01822 | 26477 ft | 406 kts | 317° |
| 2026-05-01 07:50 | 52.88727 | 19.98177 | 26854 ft | 409 kts | 317° |
| 2026-05-01 07:50 | 52.92336 | 19.90908 | 27576 ft | 413 kts | 317° |
| 2026-05-01 07:50 | 52.94180 | 19.87226 | 27929 ft | 415 kts | 317° |
| 2026-05-01 07:51 | 52.96036 | 19.83528 | 28285 ft | 418 kts | 317° |
| 2026-05-01 07:51 | 52.97901 | 19.79808 | 28649 ft | 420 kts | 317° |
| 2026-05-01 07:51 | 52.99779 | 19.76052 | 29000 ft | 423 kts | 317° |
| 2026-05-01 07:52 | 53.03555 | 19.68476 | 29675 ft | 427 kts | 317° |
| 2026-05-01 07:52 | 53.05431 | 19.64700 | 29970 ft | 429 kts | 316° |
| 2026-05-01 07:52 | 53.07377 | 19.60927 | 30295 ft | 429 kts | 319° |
| 2026-05-01 07:53 | 53.11521 | 19.53752 | 30844 ft | 430 kts | 322° |
| 2026-05-01 07:53 | 53.13659 | 19.50240 | 31115 ft | 431 kts | 322° |
| 2026-05-01 07:53 | 53.15773 | 19.46774 | 31384 ft | 433 kts | 322° |
| 2026-05-01 07:53 | 53.17915 | 19.43222 | 31655 ft | 434 kts | 321° |
| 2026-05-01 07:54 | 53.22143 | 19.36033 | 32386 ft | 433 kts | 321° |
| 2026-05-01 07:55 | 53.28170 | 19.24780 | 33417 ft | 433 kts | 316° |
| 2026-05-01 07:55 | 53.32060 | 19.17097 | 34121 ft | 432 kts | 316° |
| 2026-05-01 07:56 | 53.37921 | 19.05702 | 35039 ft | 429 kts | 317° |
| 2026-05-01 07:56 | 53.41818 | 18.98201 | 35564 ft | 429 kts | 317° |
| 2026-05-01 07:57 | 53.43781 | 18.94400 | 35811 ft | 429 kts | 317° |
| 2026-05-01 07:57 | 53.47691 | 18.86799 | 36266 ft | 429 kts | 316° |
| 2026-05-01 07:58 | 53.51759 | 18.79588 | 36722 ft | 422 kts | 327° |
| 2026-05-01 07:58 | 53.56763 | 18.74777 | 37196 ft | 411 kts | 341° |
| 2026-05-01 07:59 | 53.62034 | 18.71002 | 37618 ft | 411 kts | 341° |
| 2026-05-01 07:59 | 53.67263 | 18.67190 | 38021 ft | 411 kts | 340° |
| 2026-05-01 08:00 | 53.77784 | 18.59498 | 38385 ft | 411 kts | 340° |
| 2026-05-01 08:01 | 53.88283 | 18.51801 | 38382 ft | 412 kts | 340° |
| 2026-05-01 08:02 | 53.96146 | 18.46019 | 38383 ft | 412 kts | 340° |
| 2026-05-01 08:03 | 54.04037 | 18.40168 | 38380 ft | 412 kts | 340° |
| 2026-05-01 08:03 | 54.11920 | 18.34322 | 38381 ft | 412 kts | 339° |
| 2026-05-01 08:04 | 54.22405 | 18.26485 | 38366 ft | 412 kts | 339° |
| 2026-05-01 08:05 | 54.30272 | 18.20587 | 38371 ft | 412 kts | 339° |
| 2026-05-01 08:06 | 54.38127 | 18.14621 | 38375 ft | 413 kts | 339° |
| 2026-05-01 08:07 | 54.48610 | 18.06589 | 38380 ft | 413 kts | 338° |
| 2026-05-01 08:08 | 54.56503 | 18.00540 | 38354 ft | 413 kts | 338° |
| 2026-05-01 08:09 | 54.67007 | 17.92428 | 38371 ft | 415 kts | 338° |
| 2026-05-01 08:09 | 54.72284 | 17.88325 | 38381 ft | 415 kts | 338° |
| 2026-05-01 08:10 | 54.82795 | 17.80122 | 38386 ft | 415 kts | 338° |
| 2026-05-01 08:11 | 54.93295 | 17.71850 | 38393 ft | 415 kts | 338° |
| 2026-05-01 08:12 | 55.01198 | 17.65643 | 38374 ft | 415 kts | 338° |
| 2026-05-01 08:13 | 55.09155 | 17.59610 | 38382 ft | 416 kts | 338° |
| 2026-05-01 08:13 | 55.17077 | 17.53546 | 38388 ft | 416 kts | 338° |
| 2026-05-01 08:14 | 55.22383 | 17.49460 | 38391 ft | 416 kts | 337° |
| 2026-05-01 08:14 | 55.27669 | 17.45283 | 38385 ft | 416 kts | 337° |
| 2026-05-01 08:15 | 55.35539 | 17.38953 | 38357 ft | 416 kts | 336° |
| 2026-05-01 08:16 | 55.40821 | 17.34721 | 38367 ft | 417 kts | 336° |
| 2026-05-01 08:16 | 55.46115 | 17.30467 | 38369 ft | 417 kts | 336° |
| 2026-05-01 08:17 | 55.51410 | 17.26222 | 38367 ft | 418 kts | 336° |
| 2026-05-01 08:17 | 55.56672 | 17.21973 | 38372 ft | 418 kts | 336° |
| 2026-05-01 08:18 | 55.62023 | 17.17901 | 38371 ft | 417 kts | 344° |
| 2026-05-01 08:18 | 55.67702 | 17.16506 | 38370 ft | 415 kts | 2° |
| 2026-05-01 08:19 | 55.73479 | 17.17066 | 38370 ft | 415 kts | 3° |
| 2026-05-01 08:19 | 55.79252 | 17.17607 | 38367 ft | 416 kts | 2° |
| 2026-05-01 08:20 | 55.85046 | 17.18146 | 38368 ft | 416 kts | 2° |
| 2026-05-01 08:20 | 55.90798 | 17.18697 | 38375 ft | 416 kts | 3° |
| 2026-05-01 08:21 | 55.96586 | 17.19251 | 38346 ft | 415 kts | 2° |
| 2026-05-01 08:21 | 56.02336 | 17.19801 | 38346 ft | 416 kts | 2° |
| 2026-05-01 08:22 | 56.08118 | 17.20355 | 38345 ft | 416 kts | 2° |
| 2026-05-01 08:22 | 56.13903 | 17.20914 | 38349 ft | 416 kts | 2° |
| 2026-05-01 08:23 | 56.19659 | 17.21485 | 38353 ft | 416 kts | 2° |
| 2026-05-01 08:23 | 56.25443 | 17.22051 | 38356 ft | 415 kts | 2° |
| 2026-05-01 08:24 | 56.31223 | 17.22611 | 38352 ft | 415 kts | 2° |
| 2026-05-01 08:24 | 56.36988 | 17.23177 | 38350 ft | 415 kts | 2° |
| 2026-05-01 08:25 | 56.42754 | 17.23746 | 38345 ft | 414 kts | 2° |
| 2026-05-01 08:25 | 56.48494 | 17.24317 | 38354 ft | 414 kts | 2° |
| 2026-05-01 08:26 | 56.54252 | 17.24886 | 38348 ft | 413 kts | 2° |
| 2026-05-01 08:26 | 56.59972 | 17.25450 | 38346 ft | 413 kts | 2° |
| 2026-05-01 08:27 | 56.65689 | 17.26021 | 38346 ft | 412 kts | 2° |
| 2026-05-01 08:27 | 56.71421 | 17.26592 | 38344 ft | 412 kts | 2° |
| 2026-05-01 08:28 | 56.77156 | 17.27167 | 38342 ft | 412 kts | 2° |
| 2026-05-01 08:28 | 56.82872 | 17.27742 | 38339 ft | 411 kts | 2° |
| 2026-05-01 08:29 | 56.88567 | 17.28313 | 38334 ft | 411 kts | 2° |
| 2026-05-01 08:29 | 56.94289 | 17.28880 | 38335 ft | 411 kts | 2° |
| 2026-05-01 08:30 | 57.00000 | 17.29456 | 38330 ft | 411 kts | 2° |
| 2026-05-01 08:30 | 57.05679 | 17.30040 | 38336 ft | 410 kts | 2° |
| 2026-05-01 08:31 | 57.11391 | 17.30626 | 38334 ft | 410 kts | 2° |
| 2026-05-01 08:31 | 57.17099 | 17.31201 | 38327 ft | 410 kts | 2° |
| 2026-05-01 08:32 | 57.22767 | 17.31771 | 38319 ft | 410 kts | 2° |
| 2026-05-01 08:32 | 57.28474 | 17.32365 | 38317 ft | 410 kts | 2° |
| 2026-05-01 08:33 | 57.34173 | 17.32963 | 38322 ft | 410 kts | 2° |
| 2026-05-01 08:33 | 57.39866 | 17.33556 | 38314 ft | 409 kts | 2° |
| 2026-05-01 08:34 | 57.44594 | 17.34038 | 38324 ft | 409 kts | 2° |
| 2026-05-01 08:34 | 57.50277 | 17.34749 | 38322 ft | 410 kts | 7° |
| 2026-05-01 08:35 | 57.55877 | 17.36904 | 38316 ft | 410 kts | 10° |
| 2026-05-01 08:35 | 57.61467 | 17.39117 | 38312 ft | 410 kts | 10° |
| 2026-05-01 08:36 | 57.67065 | 17.41331 | 38174 ft | 411 kts | 10° |
| 2026-05-01 08:36 | 57.69831 | 17.42431 | 37869 ft | 409 kts | 10° |
| 2026-05-01 08:36 | 57.72609 | 17.43543 | 37312 ft | 407 kts | 10° |
| 2026-05-01 08:36 | 57.75387 | 17.44659 | 36625 ft | 407 kts | 10° |
| 2026-05-01 08:37 | 57.78167 | 17.45779 | 35928 ft | 408 kts | 10° |
| 2026-05-01 08:37 | 57.80939 | 17.46896 | 35437 ft | 404 kts | 10° |
| 2026-05-01 08:37 | 57.83642 | 17.47984 | 34964 ft | 400 kts | 10° |
| 2026-05-01 08:37 | 57.86364 | 17.49079 | 34461 ft | 397 kts | 10° |
| 2026-05-01 08:38 | 57.89062 | 17.50165 | 33925 ft | 394 kts | 10° |
| 2026-05-01 08:38 | 57.91727 | 17.51241 | 33445 ft | 389 kts | 10° |
| 2026-05-01 08:38 | 57.94362 | 17.52306 | 32965 ft | 385 kts | 10° |
| 2026-05-01 08:38 | 57.96967 | 17.53359 | 32489 ft | 381 kts | 10° |
| 2026-05-01 08:39 | 57.99518 | 17.54389 | 32025 ft | 377 kts | 10° |
| 2026-05-01 08:39 | 58.02104 | 17.55438 | 31563 ft | 373 kts | 10° |
| 2026-05-01 08:39 | 58.04594 | 17.56447 | 31117 ft | 370 kts | 10° |
| 2026-05-01 08:39 | 58.07101 | 17.57464 | 30666 ft | 366 kts | 10° |
| 2026-05-01 08:40 | 58.12044 | 17.59490 | 29758 ft | 358 kts | 10° |
| 2026-05-01 08:40 | 58.14464 | 17.60480 | 29328 ft | 353 kts | 10° |
| 2026-05-01 08:40 | 58.16855 | 17.61458 | 28910 ft | 348 kts | 10° |
| 2026-05-01 08:41 | 58.19180 | 17.62411 | 28522 ft | 343 kts | 10° |
| 2026-05-01 08:41 | 58.21507 | 17.63361 | 28127 ft | 338 kts | 10° |
| 2026-05-01 08:41 | 58.23794 | 17.64297 | 27750 ft | 334 kts | 10° |
| 2026-05-01 08:41 | 58.26051 | 17.65227 | 27378 ft | 329 kts | 10° |
| 2026-05-01 08:42 | 58.28284 | 17.66152 | 27001 ft | 326 kts | 10° |
| 2026-05-01 08:42 | 58.30493 | 17.67065 | 26637 ft | 324 kts | 9° |
| 2026-05-01 08:42 | 58.32671 | 17.67966 | 26278 ft | 322 kts | 9° |
| 2026-05-01 08:42 | 58.34857 | 17.68869 | 25902 ft | 320 kts | 9° |
| 2026-05-01 08:43 | 58.37028 | 17.69768 | 25525 ft | 318 kts | 9° |
| 2026-05-01 08:43 | 58.39192 | 17.70666 | 25148 ft | 317 kts | 9° |
| 2026-05-01 08:43 | 58.41316 | 17.71546 | 24756 ft | 315 kts | 9° |
| 2026-05-01 08:43 | 58.43461 | 17.72437 | 24365 ft | 314 kts | 9° |
| 2026-05-01 08:44 | 58.45590 | 17.73322 | 23969 ft | 312 kts | 9° |
| 2026-05-01 08:44 | 58.47706 | 17.74206 | 23529 ft | 310 kts | 9° |
| 2026-05-01 08:44 | 58.49814 | 17.75086 | 23119 ft | 308 kts | 9° |
| 2026-05-01 08:44 | 58.51878 | 17.75952 | 22732 ft | 306 kts | 9° |
| 2026-05-01 08:45 | 58.53978 | 17.76835 | 22336 ft | 304 kts | 8° |
| 2026-05-01 08:45 | 58.56014 | 17.77685 | 21945 ft | 302 kts | 8° |
| 2026-05-01 08:45 | 58.58072 | 17.78541 | 21576 ft | 302 kts | 8° |
| 2026-05-01 08:45 | 58.60133 | 17.79399 | 21177 ft | 302 kts | 8° |
| 2026-05-01 08:46 | 58.62181 | 17.80257 | 20807 ft | 301 kts | 8° |
| 2026-05-01 08:46 | 58.64226 | 17.81120 | 20433 ft | 300 kts | 8° |
| 2026-05-01 08:46 | 58.66234 | 17.81966 | 20075 ft | 299 kts | 7° |
| 2026-05-01 08:46 | 58.68267 | 17.82822 | 19692 ft | 298 kts | 7° |
| 2026-05-01 08:47 | 58.70298 | 17.83679 | 19317 ft | 298 kts | 7° |
| 2026-05-01 08:47 | 58.72329 | 17.84541 | 18943 ft | 297 kts | 7° |
| 2026-05-01 08:47 | 58.74331 | 17.85392 | 18583 ft | 297 kts | 7° |
| 2026-05-01 08:47 | 58.76348 | 17.86253 | 18177 ft | 297 kts | 7° |
| 2026-05-01 08:48 | 58.78367 | 17.87115 | 17808 ft | 296 kts | 7° |
| 2026-05-01 08:48 | 58.80377 | 17.87973 | 17450 ft | 294 kts | 8° |
| 2026-05-01 08:48 | 58.82335 | 17.89192 | 17102 ft | 301 kts | 18° |
| 2026-05-01 08:48 | 58.84280 | 17.90991 | 16892 ft | 314 kts | 20° |
| 2026-05-01 08:49 | 58.86252 | 17.92844 | 16646 ft | 316 kts | 20° |
| 2026-05-01 08:49 | 58.88225 | 17.94710 | 16400 ft | 315 kts | 20° |
| 2026-05-01 08:49 | 58.90196 | 17.96576 | 16149 ft | 314 kts | 20° |
| 2026-05-01 08:49 | 58.92159 | 17.98435 | 15898 ft | 313 kts | 20° |
| 2026-05-01 08:50 | 58.94115 | 18.00287 | 15649 ft | 313 kts | 20° |
| 2026-05-01 08:50 | 58.96048 | 18.02116 | 15405 ft | 312 kts | 20° |
| 2026-05-01 08:50 | 58.97995 | 18.03962 | 15159 ft | 311 kts | 20° |
| 2026-05-01 08:50 | 58.99937 | 18.05807 | 14916 ft | 310 kts | 20° |
| 2026-05-01 08:51 | 59.01873 | 18.07654 | 14674 ft | 309 kts | 20° |
| 2026-05-01 08:51 | 59.03798 | 18.09498 | 14425 ft | 308 kts | 21° |
| 2026-05-01 08:51 | 59.05718 | 18.11339 | 14181 ft | 307 kts | 21° |
| 2026-05-01 08:51 | 59.07637 | 18.13173 | 13936 ft | 306 kts | 20° |
| 2026-05-01 08:52 | 59.09593 | 18.14725 | 13682 ft | 301 kts | 11° |
| 2026-05-01 08:52 | 59.11633 | 18.15437 | 13445 ft | 295 kts | 359° |
| 2026-05-01 08:52 | 59.13649 | 18.15653 | 13224 ft | 294 kts | 359° |
| 2026-05-01 08:52 | 59.15694 | 18.15885 | 12984 ft | 294 kts | 359° |
| 2026-05-01 08:53 | 59.17732 | 18.16122 | 12751 ft | 293 kts | 359° |
| 2026-05-01 08:53 | 59.19768 | 18.16359 | 12536 ft | 293 kts | 359° |
| 2026-05-01 08:53 | 59.21806 | 18.16600 | 12293 ft | 293 kts | 359° |
| 2026-05-01 08:53 | 59.23844 | 18.16843 | 12060 ft | 293 kts | 359° |
| 2026-05-01 08:54 | 59.25881 | 18.17090 | 11830 ft | 292 kts | 359° |
| 2026-05-01 08:54 | 59.27911 | 18.17337 | 11599 ft | 292 kts | 359° |
| 2026-05-01 08:54 | 59.29939 | 18.17578 | 11371 ft | 292 kts | 359° |
| 2026-05-01 08:54 | 59.31944 | 18.17813 | 11149 ft | 291 kts | 359° |
| 2026-05-01 08:55 | 59.33972 | 18.18053 | 10913 ft | 291 kts | 359° |
| 2026-05-01 08:55 | 59.35998 | 18.18292 | 10672 ft | 290 kts | 359° |
| 2026-05-01 08:55 | 59.37988 | 18.18525 | 10469 ft | 288 kts | 359° |
| 2026-05-01 08:55 | 59.39976 | 18.18764 | 10226 ft | 283 kts | 359° |
| 2026-05-01 08:56 | 59.41932 | 18.19002 | 10003 ft | 281 kts | 359° |
| 2026-05-01 08:56 | 59.43890 | 18.19238 | 9774 ft | 280 kts | 359° |
| 2026-05-01 08:56 | 59.45832 | 18.19468 | 9554 ft | 279 kts | 359° |
| 2026-05-01 08:56 | 59.47766 | 18.19694 | 9337 ft | 278 kts | 359° |
| 2026-05-01 08:57 | 59.49691 | 18.19923 | 9116 ft | 277 kts | 359° |
| 2026-05-01 08:57 | 59.51593 | 18.20150 | 8869 ft | 276 kts | 359° |
| 2026-05-01 08:57 | 59.53510 | 18.20457 | 8660 ft | 277 kts | 5° |
| 2026-05-01 08:57 | 59.55409 | 18.21141 | 8411 ft | 276 kts | 6° |
| 2026-05-01 08:58 | 59.57292 | 18.21828 | 8156 ft | 275 kts | 6° |
| 2026-05-01 08:58 | 59.59150 | 18.22507 | 7912 ft | 274 kts | 6° |
| 2026-05-01 08:58 | 59.61024 | 18.23189 | 7661 ft | 272 kts | 6° |
| 2026-05-01 08:58 | 59.62886 | 18.23866 | 7419 ft | 271 kts | 6° |
| 2026-05-01 08:59 | 59.64744 | 18.24545 | 7170 ft | 270 kts | 6° |
| 2026-05-01 08:59 | 59.66585 | 18.25215 | 6928 ft | 268 kts | 6° |
| 2026-05-01 08:59 | 59.68422 | 18.25882 | 6686 ft | 268 kts | 6° |
| 2026-05-01 08:59 | 59.70232 | 18.26544 | 6477 ft | 259 kts | 6° |
| 2026-05-01 09:00 | 59.71945 | 18.27179 | 6364 ft | 247 kts | 6° |
| 2026-05-01 09:00 | 59.73598 | 18.27798 | 6235 ft | 236 kts | 6° |
| 2026-05-01 09:00 | 59.75193 | 18.28390 | 5850 ft | 232 kts | 6° |
| 2026-05-01 09:00 | 59.76787 | 18.28972 | 5601 ft | 233 kts | 6° |
| 2026-05-01 09:01 | 59.78402 | 18.29558 | 5221 ft | 237 kts | 7° |
| 2026-05-01 09:01 | 59.80010 | 18.30095 | 4998 ft | 227 kts | 360° |
| 2026-05-01 09:01 | 59.81501 | 18.29855 | 4808 ft | 212 kts | 341° |
| 2026-05-01 09:01 | 59.82836 | 18.28724 | 4569 ft | 207 kts | 324° |
| 2026-05-01 09:02 | 59.83926 | 18.26876 | 4361 ft | 205 kts | 308° |
| 2026-05-01 09:02 | 59.84680 | 18.24508 | 4162 ft | 202 kts | 291° |
| 2026-05-01 09:02 | 59.85051 | 18.21697 | 3940 ft | 220 kts | 275° |
| 2026-05-01 09:02 | 59.84955 | 18.18668 | 3739 ft | 217 kts | 256° |
| 2026-05-01 09:03 | 59.84404 | 18.15944 | 3616 ft | 210 kts | 240° |
| 2026-05-01 09:03 | 59.83671 | 18.13480 | 3462 ft | 204 kts | 240° |
| 2026-05-01 09:03 | 59.82969 | 18.11114 | 3323 ft | 198 kts | 240° |
| 2026-05-01 09:03 | 59.82289 | 18.08819 | 3222 ft | 185 kts | 240° |
| 2026-05-01 09:04 | 59.81653 | 18.06672 | 3107 ft | 177 kts | 241° |
| 2026-05-01 09:04 | 59.81045 | 18.04617 | 2986 ft | 167 kts | 241° |
| 2026-05-01 09:04 | 59.80418 | 18.02749 | 2881 ft | 159 kts | 229° |
| 2026-05-01 09:04 | 59.79552 | 18.01482 | 2779 ft | 153 kts | 205° |
| 2026-05-01 09:05 | 59.78540 | 18.00986 | 2668 ft | 149 kts | 198° |
| 2026-05-01 09:05 | 59.77532 | 18.00554 | 2577 ft | 147 kts | 197° |
| 2026-05-01 09:05 | 59.76533 | 18.00159 | 2419 ft | 145 kts | 195° |
| 2026-05-01 09:05 | 59.75560 | 17.99790 | 2238 ft | 141 kts | 196° |
| 2026-05-01 09:06 | 59.74612 | 17.99439 | 2047 ft | 137 kts | 195° |
| 2026-05-01 09:06 | 59.73681 | 17.99096 | 1861 ft | 135 kts | 195° |
| 2026-05-01 09:06 | 59.72762 | 17.98759 | 1691 ft | 133 kts | 195° |
| 2026-05-01 09:06 | 59.71852 | 17.98426 | 1503 ft | 133 kts | 194° |
| 2026-05-01 09:07 | 59.70941 | 17.98093 | 1340 ft | 134 kts | 193° |
| 2026-05-01 09:07 | 59.70029 | 17.97761 | 1153 ft | 132 kts | 194° |
| 2026-05-01 09:07 | 59.69129 | 17.97433 | 981 ft | 130 kts | 193° |
| 2026-05-01 09:07 | 59.68254 | 17.97114 | 815 ft | 130 kts | 192° |
| 2026-05-01 09:08 | 59.67363 | 17.96790 | 647 ft | 130 kts | 193° |
| 2026-05-01 09:08 | 59.66473 | 17.96474 | 469 ft | 129 kts | 189° |
| 2026-05-01 09:08 | 59.65584 | 17.96185 | 291 ft | 129 kts | 192° |
| 2026-05-01 09:08 | 59.64712 | 17.95794 | 123 ft | 124 kts | 185° |
| 2026-05-01 09:09 | 59.63959 | 17.95557 | 114 ft | 95 kts | 188° |
| 2026-05-01 09:09 | 59.63554 | 17.95430 | 120 ft | 35 kts | 194° |
| 2026-05-01 09:09 | 59.63374 | 17.95244 | 119 ft | 20 kts | 223° |
| 2026-05-01 09:09 | 59.63301 | 17.95093 | 122 ft | 12 kts | 213° |
| 2026-05-01 09:10 | 59.63275 | 17.95060 | 118 ft | 0 kts | 213° |
| 2026-05-01 09:10 | 59.63262 | 17.95043 | 121 ft | 9 kts | 213° |
| 2026-05-01 09:10 | 59.63290 | 17.94905 | 123 ft | 21 kts | 356° |
| 2026-05-01 09:10 | 59.63438 | 17.94957 | 120 ft | 22 kts | 10° |
| 2026-05-01 09:11 | 59.63591 | 17.95013 | 115 ft | 23 kts | 11° |
| 2026-05-01 09:11 | 59.63749 | 17.95073 | 111 ft | 24 kts | 10° |
| 2026-05-01 09:11 | 59.63908 | 17.95130 | 109 ft | 23 kts | 10° |
| 2026-05-01 09:11 | 59.64062 | 17.95186 | 108 ft | 22 kts | 10° |
| 2026-05-01 09:12 | 59.64211 | 17.95238 | 107 ft | 21 kts | 5° |
| 2026-05-01 09:12 | 59.64342 | 17.95135 | 104 ft | 21 kts | 319° |
| 2026-05-01 09:12 | 59.64397 | 17.94866 | 103 ft | 23 kts | 265° |
| 2026-05-01 09:12 | 59.64337 | 17.94571 | 103 ft | 24 kts | 238° |
| 2026-05-01 09:13 | 59.64247 | 17.94286 | 103 ft | 25 kts | 238° |
| 2026-05-01 09:13 | 59.64158 | 17.94005 | 108 ft | 23 kts | 237° |
| 2026-05-01 09:13 | 59.64072 | 17.93739 | 112 ft | 23 kts | 237° |
| 2026-05-01 09:13 | 59.63994 | 17.93469 | 111 ft | 24 kts | 251° |
| 2026-05-01 09:14 | 59.64030 | 17.93146 | 111 ft | 25 kts | 294° |
| 2026-05-01 09:14 | 59.64113 | 17.92825 | 111 ft | 27 kts | 296° |
| 2026-05-01 09:14 | 59.64199 | 17.92494 | 113 ft | 27 kts | 299° |
| 2026-05-01 09:14 | 59.64293 | 17.92161 | 115 ft | 28 kts | 305° |
| 2026-05-01 09:15 | 59.64483 | 17.92129 | 113 ft | 30 kts | 7° |
| 2026-05-01 09:15 | 59.64642 | 17.92184 | 112 ft | 19 kts | 21° |
| 2026-05-01 09:15 | 59.64664 | 17.92384 | 112 ft | 16 kts | 97° |
| 2026-05-01 09:15 | 59.64697 | 17.92544 | 112 ft | 8 kts | 35° |
| 2026-05-01 09:16 | 59.64735 | 17.92598 | 111 ft | 4 kts | 41° |